createdAt,value
2018-06-28T00:01:15.361Z,34.90
2018-06-28T00:03:44.537Z,34.10
2018-06-28T00:06:13.678Z,34.70
2018-06-28T00:08:42.798Z,34.70
2018-06-28T00:11:11.937Z,35.80
2018-06-28T00:13:41.225Z,34.60
2018-06-28T00:16:10.353Z,34.50
2018-06-28T00:18:39.484Z,34.50
2018-06-28T00:21:08.672Z,34.50
2018-06-28T00:23:37.830Z,34.70
2018-06-28T00:26:06.949Z,35.20
2018-06-28T00:28:36.138Z,35.40
2018-06-28T00:31:05.248Z,35.90
2018-06-28T00:33:34.431Z,36.30
2018-06-28T00:36:03.652Z,36.50
2018-06-28T00:38:32.774Z,36.90
2018-06-28T00:41:01.849Z,37.00
2018-06-28T00:43:31.004Z,37.30
2018-06-28T00:46:00.106Z,37.40
2018-06-28T00:48:29.210Z,37.60
2018-06-28T00:50:58.392Z,37.90
2018-06-28T00:53:27.582Z,38.20
2018-06-28T00:58:25.685Z,38.50
2018-06-28T01:00:54.902Z,38.70
2018-06-28T01:03:24.065Z,38.70
2018-06-28T01:05:53.240Z,38.90
2018-06-28T01:08:22.393Z,39.10
2018-06-28T01:10:51.506Z,39.60
2018-06-28T01:13:20.691Z,39.80
2018-06-28T01:15:49.910Z,39.90
2018-06-28T01:18:19.139Z,40.00
2018-06-28T01:20:48.401Z,40.00
2018-06-28T01:23:17.492Z,40.20
2018-06-28T01:25:46.640Z,40.50
2018-06-28T01:28:15.790Z,40.90
2018-06-28T01:30:45.049Z,42.30
2018-06-28T01:33:14.217Z,41.30
2018-06-28T01:35:43.310Z,41.80
2018-06-28T01:38:12.461Z,42.10
2018-06-28T01:40:41.569Z,42.30
2018-06-28T01:43:43.037Z,42.40
2018-06-28T01:46:12.270Z,42.60
2018-06-28T01:48:41.417Z,44.00
2018-06-28T01:51:10.611Z,43.00
2018-06-28T01:53:39.835Z,43.40
2018-06-28T01:56:08.966Z,43.80
2018-06-28T01:58:38.143Z,44.60
2018-06-28T02:01:07.321Z,44.00
2018-06-28T02:03:36.521Z,44.40
2018-06-28T02:06:05.728Z,44.60
2018-06-28T02:08:34.906Z,46.00
2018-06-28T02:11:04.042Z,44.60
2018-06-28T02:13:33.196Z,44.60
2018-06-28T02:16:02.545Z,45.40
2018-06-28T02:18:31.755Z,45.30
2018-06-28T02:21:00.868Z,45.40
2018-06-28T02:23:30.030Z,45.30
2018-06-28T02:25:59.160Z,45.30
2018-06-28T02:28:28.318Z,45.30
2018-06-28T02:30:57.495Z,45.30
2018-06-28T02:33:26.672Z,45.30
2018-06-28T02:35:55.862Z,45.20
2018-06-28T02:38:25.123Z,45.30
2018-06-28T02:40:54.244Z,45.20
2018-06-28T02:43:23.393Z,45.20
2018-06-28T02:45:52.570Z,45.20
2018-06-28T02:48:21.758Z,45.20
2018-06-28T02:50:50.900Z,45.60
2018-06-28T02:53:20.089Z,45.90
2018-06-28T02:55:49.241Z,46.20
2018-06-28T02:58:18.342Z,46.30
2018-06-28T03:00:47.542Z,46.50
2018-06-28T03:03:16.733Z,47.00
2018-06-28T03:05:45.918Z,47.40
2018-06-28T03:08:15.094Z,47.30
2018-06-28T03:10:44.259Z,47.10
2018-06-28T03:13:13.449Z,47.10
2018-06-28T03:15:42.622Z,47.00
2018-06-28T03:18:11.870Z,47.10
2018-06-28T03:20:41.070Z,46.90
2018-06-28T03:23:10.273Z,46.70
2018-06-28T03:25:39.385Z,46.20
2018-06-28T03:28:08.675Z,45.80
2018-06-28T03:30:37.817Z,45.40
2018-06-28T03:33:06.929Z,45.50
2018-06-28T03:35:36.090Z,45.50
2018-06-28T03:38:05.385Z,45.50
2018-06-28T03:40:34.363Z,46.90
2018-06-28T03:43:03.512Z,45.50
2018-06-28T03:45:32.725Z,45.60
2018-06-28T03:48:01.874Z,45.60
2018-06-28T03:50:31.022Z,45.60
2018-06-28T03:53:00.173Z,45.70
2018-06-28T03:55:29.266Z,45.60
2018-06-28T03:57:59.080Z,45.70
2018-06-28T04:00:28.334Z,45.70
2018-06-28T04:02:57.900Z,45.30
2018-06-28T04:05:27.116Z,45.00
2018-06-28T04:07:56.282Z,44.80
2018-06-28T04:10:25.398Z,44.90
2018-06-28T04:12:54.549Z,44.70
2018-06-28T04:15:23.660Z,44.40
2018-06-28T04:17:52.757Z,44.40
2018-06-28T04:20:21.859Z,44.20
2018-06-28T04:22:51.001Z,44.10
2018-06-28T04:25:20.141Z,43.70
2018-06-28T04:27:49.247Z,43.80
2018-06-28T04:30:18.455Z,43.50
2018-06-28T04:32:47.605Z,43.30
2018-06-28T04:35:16.773Z,43.00
2018-06-28T04:37:45.925Z,43.00
2018-06-28T04:40:15.078Z,42.70
2018-06-28T04:42:44.306Z,42.60
2018-06-28T04:45:13.533Z,42.00
2018-06-28T04:47:42.633Z,41.90
2018-06-28T04:50:11.742Z,40.90
2018-06-28T04:52:40.906Z,40.70
2018-06-28T04:55:10.013Z,40.10
2018-06-28T04:57:39.159Z,39.70
2018-06-28T05:00:08.353Z,39.30
2018-06-28T05:02:37.472Z,38.60
2018-06-28T05:05:06.889Z,38.30
2018-06-28T05:07:36.091Z,37.80
2018-06-28T05:10:05.346Z,37.20
2018-06-28T05:12:34.789Z,36.60
2018-06-28T05:15:03.949Z,36.10
2018-06-28T05:17:33.129Z,35.10
2018-06-28T05:20:02.335Z,35.20
2018-06-28T05:22:31.514Z,35.30
2018-06-28T05:25:00.623Z,35.10
2018-06-28T05:27:29.858Z,34.80
2018-06-28T05:29:59.053Z,34.20
2018-06-28T05:32:28.289Z,33.90
2018-06-28T05:34:57.499Z,34.10
2018-06-28T05:37:26.686Z,33.30
2018-06-28T05:39:56.644Z,33.10
2018-06-28T05:42:25.759Z,32.50
2018-06-28T05:44:54.937Z,32.40
2018-06-28T05:47:24.102Z,31.90
2018-06-28T05:49:53.221Z,31.60
2018-06-28T05:52:22.503Z,30.90
2018-06-28T05:54:51.610Z,30.10
2018-06-28T05:57:20.802Z,29.90
2018-06-28T05:59:49.968Z,29.70
2018-06-28T06:02:19.096Z,29.60
2018-06-28T06:04:48.242Z,29.30
2018-06-28T06:07:17.336Z,28.40
2018-06-28T06:09:46.470Z,28.50
2018-06-28T06:12:15.614Z,28.30
2018-06-28T06:14:44.817Z,28.00
2018-06-28T06:17:13.993Z,28.10
2018-06-28T06:19:43.170Z,27.40
2018-06-28T06:22:12.328Z,27.00
2018-06-28T06:24:41.470Z,26.70
2018-06-28T06:27:10.643Z,26.60
2018-06-28T06:29:39.802Z,26.20
2018-06-28T06:32:09.049Z,25.80
2018-06-28T06:34:38.208Z,25.80
2018-06-28T06:37:07.407Z,25.50
2018-06-28T06:39:36.517Z,26.00
2018-06-28T06:42:05.681Z,24.50
2018-06-28T06:44:34.917Z,24.10
2018-06-28T06:47:04.015Z,23.90
2018-06-28T06:49:33.213Z,23.40
2018-06-28T06:52:02.380Z,23.40
2018-06-28T06:54:31.560Z,22.60
2018-06-28T06:57:00.740Z,22.30
2018-06-28T06:59:29.899Z,21.80
2018-06-28T07:01:59.054Z,21.30
2018-06-28T07:04:28.229Z,21.00
2018-06-28T07:06:57.452Z,20.00
2018-06-28T07:09:26.617Z,20.50
2018-06-28T07:11:55.846Z,19.40
2018-06-28T07:14:24.973Z,19.20
2018-06-28T07:16:54.117Z,19.30
2018-06-28T07:19:23.221Z,18.90
2018-06-28T07:21:52.341Z,19.20
2018-06-28T07:24:21.710Z,18.90
2018-06-28T07:29:19.642Z,19.00
2018-06-28T07:31:48.878Z,18.10
2018-06-28T07:34:18.039Z,17.70
2018-06-28T07:36:47.210Z,17.20
2018-06-28T07:39:16.443Z,17.20
2018-06-28T07:41:45.640Z,16.80
2018-06-28T07:44:14.746Z,16.70
2018-06-28T07:46:43.922Z,16.40
2018-06-28T07:49:12.976Z,16.50
2018-06-28T07:51:42.064Z,16.80
2018-06-28T07:54:11.267Z,15.60
2018-06-28T07:56:40.378Z,15.40
2018-06-28T07:59:09.543Z,15.40
2018-06-28T08:01:38.734Z,15.30
2018-06-28T08:04:07.966Z,15.30
2018-06-28T08:06:37.099Z,15.20
2018-06-28T08:09:07.950Z,14.70
2018-06-28T08:11:37.105Z,13.90
2018-06-28T08:14:06.244Z,13.80
2018-06-28T08:16:35.515Z,13.70
2018-06-28T08:19:04.665Z,14.30
2018-06-28T08:21:33.854Z,13.50
2018-06-28T08:24:02.917Z,13.30
2018-06-28T08:26:32.123Z,13.20
2018-06-28T08:29:01.265Z,13.00
2018-06-28T08:31:30.422Z,13.10
2018-06-28T08:33:59.575Z,12.90
2018-06-28T08:36:28.708Z,13.00
2018-06-28T08:38:57.869Z,13.20
2018-06-28T08:41:26.998Z,14.10
2018-06-28T08:43:56.146Z,12.80
2018-06-28T08:46:25.249Z,12.50
2018-06-28T08:48:54.489Z,12.10
2018-06-28T08:51:23.732Z,10.90
2018-06-28T08:53:52.878Z,9.80
2018-06-28T08:56:22.484Z,9.70
2018-06-28T08:58:51.612Z,9.10
2018-06-28T09:01:20.771Z,8.40
2018-06-28T09:03:49.973Z,9.10
2018-06-28T09:06:19.154Z,8.50
2018-06-28T09:08:48.302Z,9.30
2018-06-28T09:11:17.494Z,9.00
2018-06-28T09:13:46.662Z,8.60
2018-06-28T09:16:15.794Z,7.80
2018-06-28T09:18:44.901Z,7.90
2018-06-28T09:21:14.792Z,8.10
2018-06-28T09:23:43.951Z,7.70
2018-06-28T09:26:13.084Z,7.30
2018-06-28T09:28:42.271Z,7.10
2018-06-28T09:31:11.481Z,6.60
2018-06-28T09:33:40.620Z,6.80
2018-06-28T09:36:09.799Z,6.70
2018-06-28T09:38:38.912Z,7.00
2018-06-28T09:41:08.048Z,6.90
2018-06-28T09:43:37.184Z,6.20
2018-06-28T09:46:06.370Z,6.30
2018-06-28T09:48:35.530Z,6.20
2018-06-28T09:51:04.687Z,6.10
2018-06-28T09:53:33.842Z,5.20
2018-06-28T09:56:02.941Z,6.50
2018-06-28T09:58:32.128Z,5.90
2018-06-28T10:01:01.343Z,6.20
2018-06-28T10:03:30.554Z,6.10
2018-06-28T10:05:59.687Z,5.40
2018-06-28T10:08:28.815Z,5.50
2018-06-28T10:10:57.983Z,4.80
2018-06-28T10:13:27.079Z,4.50
2018-06-28T10:15:56.246Z,3.70
2018-06-28T10:18:25.340Z,3.50
2018-06-28T10:20:54.530Z,4.00
2018-06-28T10:23:23.719Z,2.80
2018-06-28T10:25:52.812Z,1.90
2018-06-28T10:28:22.009Z,2.20
2018-06-28T10:30:51.117Z,1.70
2018-06-28T10:33:20.320Z,1.80
2018-06-28T10:35:49.437Z,1.70
2018-06-28T10:38:18.562Z,1.60
2018-06-28T10:40:47.791Z,1.60
2018-06-28T10:43:16.892Z,1.60
2018-06-28T10:45:46.070Z,1.70
2018-06-28T10:48:15.211Z,1.70
2018-06-28T10:50:44.424Z,1.70
2018-06-28T10:53:13.514Z,1.80
2018-06-28T10:55:42.649Z,1.80
2018-06-28T10:58:11.862Z,1.10
2018-06-28T11:00:40.953Z,1.00
2018-06-28T11:03:10.056Z,1.00
2018-06-28T11:05:39.194Z,1.00
2018-06-28T11:08:08.349Z,1.00
2018-06-28T11:10:37.441Z,1.50
2018-06-28T11:13:06.597Z,1.00
2018-06-28T11:15:35.814Z,1.00
2018-06-28T11:18:04.952Z,1.00
2018-06-28T11:20:34.027Z,1.00
2018-06-28T11:23:03.145Z,1.00
2018-06-28T11:25:32.314Z,1.00
2018-06-28T11:28:01.491Z,1.00
2018-06-28T11:30:30.675Z,1.00
2018-06-28T11:32:59.810Z,1.00
2018-06-28T11:35:28.932Z,1.00
2018-06-28T11:37:58.084Z,1.00
2018-06-28T11:40:27.210Z,1.00
2018-06-28T11:42:56.338Z,1.00
2018-06-28T11:45:25.460Z,1.00
2018-06-28T11:47:54.591Z,1.00
2018-06-28T11:50:23.746Z,1.00
2018-06-28T11:52:52.856Z,1.00
2018-06-28T11:55:22.031Z,1.00
2018-06-28T11:57:51.216Z,1.00
2018-06-28T12:02:49.337Z,1.00
2018-06-28T12:05:18.481Z,1.00
2018-06-28T12:07:47.661Z,1.00
2018-06-28T12:10:17.116Z,1.00
2018-06-28T12:12:46.225Z,1.00
2018-06-28T12:15:15.391Z,1.00
2018-06-28T12:17:44.484Z,1.00
2018-06-28T12:20:13.580Z,1.00
2018-06-28T12:22:43.939Z,1.00
2018-06-28T12:25:13.088Z,1.00
2018-06-28T12:27:42.275Z,1.00
2018-06-28T12:30:11.364Z,1.00
2018-06-28T12:32:40.586Z,1.00
2018-06-28T12:35:09.759Z,1.00
2018-06-28T12:37:38.858Z,1.00
2018-06-28T12:40:08.018Z,1.00
2018-06-28T12:42:37.171Z,1.00
2018-06-28T12:45:06.510Z,1.00
2018-06-28T12:48:01.147Z,1.00
2018-06-28T12:50:30.263Z,1.00
2018-06-28T12:53:07.038Z,1.00
2018-06-28T12:56:49.639Z,1.00
2018-06-28T13:01:50.352Z,1.00
2018-06-28T13:04:19.529Z,1.00
2018-06-28T13:06:48.714Z,1.00
2018-06-28T13:09:18.342Z,1.00
2018-06-28T13:11:47.486Z,1.00
2018-06-28T13:14:16.583Z,1.00
2018-06-28T13:16:45.700Z,1.00
2018-06-28T13:19:14.880Z,1.00
2018-06-28T13:21:44.014Z,1.00
2018-06-28T13:24:13.143Z,1.00
2018-06-28T13:26:42.248Z,1.00
2018-06-28T13:29:11.435Z,1.00
2018-06-28T13:31:40.579Z,1.00
2018-06-28T13:34:09.765Z,1.00
2018-06-28T13:36:38.933Z,1.00
2018-06-28T13:39:08.246Z,1.00
2018-06-28T13:41:37.785Z,1.00
2018-06-28T13:44:06.534Z,1.00
2018-06-28T13:46:35.941Z,1.00
2018-06-28T13:49:05.375Z,1.00
2018-06-28T13:51:34.444Z,1.00
2018-06-28T13:54:03.562Z,1.00
2018-06-28T13:56:32.685Z,1.00
2018-06-28T13:59:02.006Z,1.00
2018-06-28T14:01:31.107Z,1.00
2018-06-28T14:04:00.223Z,1.00
2018-06-28T14:06:29.399Z,1.00
2018-06-28T14:08:58.534Z,1.00
2018-06-28T14:11:27.656Z,1.00
2018-06-28T14:13:56.793Z,1.00
2018-06-28T14:16:25.992Z,1.00
2018-06-28T14:18:55.179Z,1.00
2018-06-28T14:21:24.338Z,1.00
2018-06-28T14:23:53.574Z,1.00
2018-06-28T14:26:22.762Z,1.00
2018-06-28T14:28:51.965Z,1.00
2018-06-28T14:31:21.151Z,1.00
2018-06-28T14:33:50.360Z,1.00
2018-06-28T14:36:19.531Z,1.00
2018-06-28T14:38:48.653Z,1.00
2018-06-28T14:41:17.783Z,1.00
2018-06-28T14:43:46.884Z,1.00
2018-06-28T14:46:16.172Z,1.00
2018-06-28T14:48:45.292Z,1.40
2018-06-28T14:51:14.507Z,2.60
2018-06-28T14:53:43.707Z,3.80
2018-06-28T14:56:12.850Z,4.70
2018-06-28T14:58:42.090Z,5.40
2018-06-28T15:01:11.176Z,5.30
2018-06-28T15:03:40.297Z,5.30
2018-06-28T15:06:09.519Z,5.00
2018-06-28T15:08:38.705Z,2.90
2018-06-28T15:11:07.936Z,2.20
2018-06-28T15:13:37.080Z,1.00
2018-06-28T15:16:06.424Z,1.00
2018-06-28T15:18:35.593Z,1.00
2018-06-28T15:21:04.803Z,1.00
2018-06-28T15:23:33.926Z,1.70
2018-06-28T15:26:03.101Z,1.20
2018-06-28T15:28:32.240Z,1.00
2018-06-28T15:31:01.423Z,1.40
2018-06-28T15:33:30.643Z,1.90
2018-06-28T15:35:59.793Z,1.70
2018-06-28T15:38:28.929Z,1.80
2018-06-28T15:40:58.072Z,2.90
2018-06-28T15:43:27.233Z,3.50
2018-06-28T15:45:56.421Z,4.00
2018-06-28T15:48:25.562Z,4.20
2018-06-28T15:50:54.738Z,4.30
2018-06-28T15:53:23.905Z,4.20
2018-06-28T15:55:53.118Z,3.80
2018-06-28T15:58:22.461Z,3.70
2018-06-28T16:00:51.696Z,3.70
2018-06-28T16:03:20.858Z,3.70
2018-06-28T16:05:50.542Z,2.60
2018-06-28T16:08:19.711Z,1.10
2018-06-28T16:10:48.850Z,1.00
2018-06-28T16:13:17.946Z,1.00
2018-06-28T16:15:47.151Z,1.00
2018-06-28T16:18:22.554Z,1.00
2018-06-28T16:20:51.730Z,1.00
2018-06-28T16:23:20.921Z,1.00
2018-06-28T16:25:50.022Z,1.00
2018-06-28T16:28:19.205Z,1.00
2018-06-28T16:30:48.304Z,1.00
2018-06-28T16:33:17.654Z,1.00
2018-06-28T16:35:46.797Z,1.00
2018-06-28T16:38:15.976Z,1.00
2018-06-28T16:40:45.056Z,1.00
2018-06-28T16:43:14.332Z,1.00
2018-06-28T16:45:43.611Z,1.00
2018-06-28T16:48:12.754Z,1.00
2018-06-28T16:50:41.935Z,1.00
2018-06-28T16:53:11.182Z,1.00
2018-06-28T16:55:40.766Z,1.00
2018-06-28T16:58:10.660Z,1.00
2018-06-28T17:00:40.474Z,1.00
2018-06-28T17:03:13.990Z,1.00
2018-06-28T17:05:43.282Z,1.00
2018-06-28T17:08:12.496Z,1.00
2018-06-28T17:10:41.658Z,1.00
2018-06-28T17:15:39.670Z,1.00
2018-06-28T17:18:08.856Z,1.00
2018-06-28T17:20:38.021Z,1.00
2018-06-28T17:23:07.140Z,1.30
2018-06-28T17:25:36.284Z,1.10
2018-06-28T17:28:05.625Z,2.30
2018-06-28T17:30:34.773Z,2.60
2018-06-28T17:33:03.919Z,1.40
2018-06-28T17:35:33.776Z,1.30
2018-06-28T17:38:02.893Z,1.10
2018-06-28T17:40:32.143Z,1.30
2018-06-28T17:43:01.467Z,1.10
2018-06-28T17:45:30.564Z,2.20
2018-06-28T17:47:59.660Z,2.90
2018-06-28T17:50:28.719Z,3.70
2018-06-28T17:52:57.860Z,5.00
2018-06-28T17:55:26.945Z,4.60
2018-06-28T17:57:56.150Z,5.10
2018-06-28T18:00:25.340Z,5.40
2018-06-28T18:02:54.481Z,5.90
2018-06-28T18:05:23.619Z,6.40
2018-06-28T18:07:52.839Z,6.80
2018-06-28T18:10:21.983Z,7.20
2018-06-28T18:12:51.284Z,7.40
2018-06-28T18:15:20.532Z,7.50
2018-06-28T18:17:49.587Z,7.50
2018-06-28T18:20:18.743Z,7.80
2018-06-28T18:22:47.964Z,8.00
2018-06-28T18:25:17.125Z,8.40
2018-06-28T18:27:46.282Z,8.50
2018-06-28T18:30:15.500Z,8.50
2018-06-28T18:32:44.652Z,8.40
2018-06-28T18:35:13.841Z,8.40
2018-06-28T18:40:11.917Z,8.30
2018-06-28T18:42:41.074Z,8.30
2018-06-28T18:45:10.215Z,9.10
2018-06-28T18:47:39.363Z,8.20
2018-06-28T18:50:08.517Z,9.00
2018-06-28T18:52:37.717Z,8.50
2018-06-28T18:55:07.184Z,8.70
2018-06-28T18:57:36.345Z,8.60
2018-06-28T19:00:06.527Z,8.60
2018-06-28T19:02:35.711Z,8.80
2018-06-28T19:05:04.994Z,9.30
2018-06-28T19:07:34.094Z,9.30
2018-06-28T19:10:08.631Z,9.60
2018-06-28T19:12:37.837Z,9.70
2018-06-28T19:15:12.554Z,10.00
2018-06-28T19:17:41.779Z,10.20
2018-06-28T19:20:10.918Z,10.30
2018-06-28T19:22:45.369Z,10.50
2018-06-28T19:25:14.571Z,10.70
2018-06-28T19:27:43.735Z,10.90
2018-06-28T19:30:18.290Z,11.10
2018-06-28T19:32:47.469Z,11.30
2018-06-28T19:35:16.597Z,11.60
2018-06-28T19:37:48.859Z,11.60
2018-06-28T19:40:23.471Z,11.80
2018-06-28T19:43:00.228Z,11.80
2018-06-28T19:45:29.391Z,11.80
2018-06-28T19:47:58.559Z,12.00
2018-06-28T19:50:33.079Z,12.10
2018-06-28T19:53:10.501Z,12.30
2018-06-28T19:55:39.699Z,12.10
2018-06-28T19:58:08.907Z,12.20
2018-06-28T20:00:43.556Z,12.50
2018-06-28T20:03:17.968Z,12.60
2018-06-28T20:05:47.416Z,12.70
2018-06-28T20:08:16.577Z,12.90
2018-06-28T20:10:45.750Z,13.00
2018-06-28T20:13:20.159Z,14.00
2018-06-28T20:15:57.448Z,13.30
2018-06-28T20:18:31.924Z,13.40
2018-06-28T20:21:02.459Z,13.50
2018-06-28T20:23:31.721Z,13.70
2018-06-28T20:26:06.286Z,13.70
2018-06-28T20:28:40.695Z,13.70
2018-06-28T20:31:15.312Z,13.90
2018-06-28T20:33:49.724Z,14.00
2018-06-28T20:36:18.925Z,14.40
2018-06-28T20:38:48.230Z,14.80
2018-06-28T20:41:17.302Z,14.80
2018-06-28T20:43:46.482Z,15.00
2018-06-28T20:46:15.671Z,15.50
2018-06-28T20:48:44.760Z,15.60
2018-06-28T20:51:14.116Z,15.60
2018-06-28T20:53:43.029Z,15.60
2018-06-28T20:56:12.185Z,15.60
2018-06-28T20:58:41.333Z,15.50
2018-06-28T21:01:10.638Z,15.50
2018-06-28T21:03:39.833Z,15.90
2018-06-28T21:06:09.050Z,16.10
2018-06-28T21:08:38.499Z,16.20
2018-06-28T21:11:08.184Z,16.40
2018-06-28T21:13:37.698Z,16.50
2018-06-28T21:16:07.110Z,16.70
2018-06-28T21:18:36.609Z,16.90
2018-06-28T21:21:05.848Z,17.00
2018-06-28T21:23:34.929Z,16.90
2018-06-28T21:26:04.062Z,17.40
2018-06-28T21:28:33.197Z,17.50
2018-06-28T21:31:02.409Z,17.50
2018-06-28T21:33:31.509Z,18.50
2018-06-28T21:36:00.870Z,17.60
2018-06-28T21:38:30.044Z,17.70
2018-06-28T21:40:59.231Z,17.90
2018-06-28T21:43:28.344Z,18.00
2018-06-28T21:45:57.451Z,18.10
2018-06-28T21:48:26.608Z,18.00
2018-06-28T21:50:55.786Z,18.20
2018-06-28T21:53:25.007Z,18.20
2018-06-28T21:55:54.162Z,18.40
2018-06-28T21:58:23.312Z,18.50
2018-06-28T22:00:52.396Z,18.60
2018-06-28T22:03:21.503Z,18.60
2018-06-28T22:05:50.634Z,18.70
2018-06-28T22:08:19.805Z,18.80
2018-06-28T22:10:48.971Z,19.00
2018-06-28T22:13:18.151Z,19.00
2018-06-28T22:15:47.331Z,19.30
2018-06-28T22:18:16.462Z,19.40
2018-06-28T22:20:45.570Z,20.20
2018-06-28T22:23:14.752Z,19.70
2018-06-28T22:25:43.913Z,19.70
2018-06-28T22:28:13.094Z,19.80
2018-06-28T22:30:42.328Z,19.80
2018-06-28T22:33:11.484Z,19.90
2018-06-28T22:35:40.662Z,20.00
2018-06-28T22:38:09.829Z,20.50
2018-06-28T22:40:39.004Z,20.70
2018-06-28T22:43:08.196Z,20.90
2018-06-28T22:45:37.330Z,21.00
2018-06-28T22:48:06.659Z,21.30
2018-06-28T22:50:35.823Z,21.60
2018-06-28T22:53:04.944Z,21.80
2018-06-28T22:55:34.087Z,21.90
2018-06-28T22:58:03.244Z,23.20
2018-06-28T23:00:32.933Z,22.30
2018-06-28T23:03:02.063Z,22.40
2018-06-28T23:05:31.217Z,22.50
2018-06-28T23:08:00.435Z,22.40
2018-06-28T23:10:29.614Z,22.70
2018-06-28T23:12:58.791Z,22.90
2018-06-28T23:15:27.994Z,22.90
2018-06-28T23:17:57.111Z,23.20
2018-06-28T23:20:26.267Z,23.60
2018-06-28T23:22:55.410Z,23.80
2018-06-28T23:25:24.542Z,23.80
2018-06-28T23:27:53.701Z,23.80
2018-06-28T23:30:22.843Z,23.80
2018-06-28T23:32:52.038Z,23.70
2018-06-28T23:35:21.262Z,23.70
2018-06-28T23:37:50.362Z,23.70
2018-06-28T23:40:19.547Z,23.70
2018-06-28T23:42:48.693Z,23.90
2018-06-28T23:45:17.854Z,24.00
2018-06-28T23:47:47.065Z,24.50
2018-06-28T23:50:16.303Z,24.60
2018-06-28T23:52:45.530Z,24.70
2018-06-28T23:55:14.654Z,24.50
2018-06-28T23:57:43.779Z,24.70
